createdAt,value
2023-04-04T00:01:40.847Z,97489.41
2023-04-04T00:04:10.710Z,97486.02
2023-04-04T00:06:45.312Z,97487.37
2023-04-04T00:09:16.565Z,97489.15
2023-04-04T00:11:46.874Z,97490.72
2023-04-04T00:14:17.781Z,97495.34
2023-04-04T00:16:49.353Z,97494.73
2023-04-04T00:19:19.393Z,97496.02
2023-04-04T00:21:51.029Z,97493.55
2023-04-04T00:24:20.483Z,97494.68
2023-04-04T00:26:51.684Z,97491.41
2023-04-04T00:29:20.955Z,97491.03
2023-04-04T00:31:50.696Z,97492.31
2023-04-04T00:34:24.189Z,97491.52
2023-04-04T00:36:59.876Z,97494.88
2023-04-04T00:39:31.086Z,97497.40
2023-04-04T00:42:01.137Z,97496.76
2023-04-04T00:44:31.404Z,97499.63
2023-04-04T00:47:01.027Z,97497.96
2023-04-04T00:49:32.412Z,97497.05
2023-04-04T00:52:04.074Z,97494.25
2023-04-04T00:54:36.163Z,97491.08
2023-04-04T00:57:09.248Z,97489.14
2023-04-04T00:59:40.222Z,97489.40
2023-04-04T01:02:11.251Z,97488.54
2023-04-04T01:04:43.207Z,97492.06
2023-04-04T01:07:12.806Z,97487.92
2023-04-04T01:09:43.633Z,97484.98
2023-04-04T01:12:14.623Z,97485.30
2023-04-04T01:14:45.363Z,97487.31
2023-04-04T01:17:16.172Z,97491.02
2023-04-04T01:20:28.729Z,97491.42
2023-04-04T01:23:23.768Z,97491.98
2023-04-04T01:26:04.712Z,97496.67
2023-04-04T01:28:37.743Z,97496.50
2023-04-04T01:31:22.343Z,97497.31
2023-04-04T01:34:02.069Z,97498.30
2023-04-04T01:37:12.920Z,97493.13
2023-04-04T01:40:06.972Z,97489.56
2023-04-04T01:42:40.528Z,97485.92
2023-04-04T01:45:10.893Z,97485.70
2023-04-04T01:47:41.842Z,97484.24
2023-04-04T01:50:17.312Z,97482.31
2023-04-04T01:52:48.692Z,97480.98
2023-04-04T01:55:18.113Z,97481.36
2023-04-04T01:57:49.028Z,97487.30
2023-04-04T02:00:19.189Z,97484.13
2023-04-04T02:02:48.823Z,97481.07
2023-04-04T02:05:19.028Z,97478.59
2023-04-04T02:07:51.052Z,97481.70
2023-04-04T02:10:30.736Z,97476.65
2023-04-04T02:13:01.104Z,97473.98
2023-04-04T02:15:34.714Z,97469.52
2023-04-04T02:18:07.620Z,97472.58
2023-04-04T02:20:39.342Z,97472.63
2023-04-04T02:23:09.610Z,97473.21
2023-04-04T02:25:39.660Z,97474.54
2023-04-04T02:28:09.201Z,97472.09
2023-04-04T02:30:38.901Z,97468.27
2023-04-04T02:33:08.571Z,97469.39
2023-04-04T02:35:39.714Z,97467.82
2023-04-04T02:38:10.767Z,97468.14
2023-04-04T02:40:46.679Z,97463.35
2023-04-04T02:43:20.328Z,97464.89
2023-04-04T02:45:51.840Z,97463.06
2023-04-04T02:48:29.310Z,97463.04
2023-04-04T02:51:05.490Z,97466.63
2023-04-04T02:53:35.723Z,97463.30
2023-04-04T02:56:17.877Z,97460.04
2023-04-04T02:58:50.119Z,97460.86
2023-04-04T03:01:19.602Z,97460.39
2023-04-04T03:03:49.611Z,97459.96
2023-04-04T03:06:20.205Z,97453.52
2023-04-04T03:08:54.300Z,97452.26
2023-04-04T03:11:27.881Z,97453.96
2023-04-04T03:13:57.865Z,97452.03
2023-04-04T03:16:39.851Z,97452.99
2023-04-04T03:19:27.740Z,97451.88
2023-04-04T03:21:58.175Z,97453.36
2023-04-04T03:24:38.680Z,97455.08
2023-04-04T03:27:10.417Z,97451.58
2023-04-04T03:29:43.304Z,97454.31
2023-04-04T03:32:13.590Z,97454.16
2023-04-04T03:34:50.496Z,97451.02
2023-04-04T03:37:22.822Z,97453.68
2023-04-04T03:40:00.537Z,97455.38
2023-04-04T03:42:46.140Z,97455.91
2023-04-04T03:45:20.747Z,97456.42
2023-04-04T03:47:53.323Z,97450.83
2023-04-04T03:50:23.998Z,97451.93
2023-04-04T03:52:55.446Z,97454.88
2023-04-04T03:55:26.984Z,97453.78
2023-04-04T03:57:59.332Z,97454.64
2023-04-04T04:00:29.102Z,97450.92
2023-04-04T04:02:59.899Z,97449.38
2023-04-04T04:05:30.971Z,97447.73
2023-04-04T04:08:01.196Z,97448.64
2023-04-04T04:10:34.602Z,97446.23
2023-04-04T04:13:06.526Z,97440.25
2023-04-04T04:15:37.372Z,97445.66
2023-04-04T04:18:23.558Z,97441.02
2023-04-04T04:21:04.709Z,97448.47
2023-04-04T04:23:41.714Z,97441.73
2023-04-04T04:26:14.234Z,97439.41
2023-04-04T04:28:48.593Z,97448.87
2023-04-04T04:31:22.143Z,97449.90
2023-04-04T04:33:58.310Z,97450.13
2023-04-04T04:36:31.397Z,97448.56
2023-04-04T04:39:18.352Z,97445.42
2023-04-04T04:42:01.547Z,97449.94
2023-04-04T04:44:31.056Z,97450.96
2023-04-04T04:47:05.985Z,97445.83
2023-04-04T04:49:36.826Z,97446.99
2023-04-04T04:52:09.814Z,97450.05
2023-04-04T04:54:41.034Z,97445.55
2023-04-04T04:57:53.636Z,97440.30
2023-04-04T05:00:33.005Z,97439.08
2023-04-04T05:03:09.066Z,97439.98
2023-04-04T05:05:44.647Z,97442.77
2023-04-04T05:08:16.350Z,97436.99
2023-04-04T05:10:57.254Z,97439.29
2023-04-04T05:13:34.165Z,97438.58
2023-04-04T05:16:07.066Z,97438.02
2023-04-04T05:18:42.961Z,97436.73
2023-04-04T05:21:16.846Z,97436.95
2023-04-04T05:23:51.026Z,97437.13
2023-04-04T05:26:21.449Z,97436.64
2023-04-04T05:28:53.001Z,97436.45
2023-04-04T05:31:23.671Z,97435.71
2023-04-04T05:33:55.328Z,97442.05
2023-04-04T05:36:32.724Z,97438.52
2023-04-04T05:39:06.675Z,97438.28
2023-04-04T05:41:43.807Z,97432.77
2023-04-04T05:44:40.173Z,97429.95
2023-04-04T05:47:10.988Z,97432.58
2023-04-04T05:49:44.039Z,97436.51
2023-04-04T05:52:16.715Z,97434.65
2023-04-04T05:54:47.972Z,97429.25
2023-04-04T05:57:33.044Z,97429.33
2023-04-04T06:00:06.429Z,97431.54
2023-04-04T06:02:50.810Z,97428.28
2023-04-04T06:05:22.389Z,97435.75
2023-04-04T06:07:52.401Z,97433.45
2023-04-04T06:10:22.397Z,97432.48
2023-04-04T06:12:53.833Z,97435.23
2023-04-04T06:15:28.866Z,97438.06
2023-04-04T06:17:59.136Z,97437.05
2023-04-04T06:20:31.597Z,97438.27
2023-04-04T06:23:05.620Z,97434.29
2023-04-04T06:25:42.397Z,97435.79
2023-04-04T06:28:16.301Z,97429.89
2023-04-04T06:30:48.312Z,97433.80
2023-04-04T06:33:21.789Z,97437.02
2023-04-04T06:35:57.901Z,97436.36
2023-04-04T06:38:29.985Z,97435.87
2023-04-04T06:41:04.032Z,97438.45
2023-04-04T06:43:33.719Z,97437.91
2023-04-04T06:46:04.865Z,97438.14
2023-04-04T06:48:40.106Z,97438.42
2023-04-04T06:51:11.490Z,97442.77
2023-04-04T06:53:46.334Z,97442.66
2023-04-04T06:56:16.936Z,97445.84
2023-04-04T06:58:46.944Z,97447.62
2023-04-04T07:01:16.743Z,97450.14
2023-04-04T07:03:49.770Z,97452.55
2023-04-04T07:06:26.046Z,97453.61
2023-04-04T07:09:07.211Z,97451.91
2023-04-04T07:11:39.550Z,97452.22
2023-04-04T07:14:15.875Z,97455.33
2023-04-04T07:16:47.323Z,97457.75
2023-04-04T07:22:31.884Z,97458.23
2023-04-04T07:25:03.993Z,97459.27
2023-04-04T07:27:34.277Z,97458.31
2023-04-04T07:30:05.382Z,97455.59
2023-04-04T07:32:34.687Z,97453.09
2023-04-04T07:35:10.067Z,97452.09
2023-04-04T07:37:39.876Z,97454.41
2023-04-04T07:40:16.055Z,97453.23
2023-04-04T07:42:48.282Z,97460.25
2023-04-04T07:45:18.844Z,97464.34
2023-04-04T07:47:49.003Z,97463.42
2023-04-04T07:50:18.603Z,97462.78
2023-04-04T07:52:57.016Z,97462.34
2023-04-04T07:55:27.387Z,97464.02
2023-04-04T07:57:57.923Z,97459.23
2023-04-04T08:00:28.509Z,97461.69
2023-04-04T08:02:59.915Z,97459.91
2023-04-04T08:05:30.932Z,97463.85
2023-04-04T08:08:01.795Z,97460.75
2023-04-04T08:10:31.985Z,97458.98
2023-04-04T08:13:02.022Z,97457.75
2023-04-04T08:15:32.055Z,97459.47
2023-04-04T08:18:02.071Z,97458.44
2023-04-04T08:20:34.313Z,97458.02
2023-04-04T08:23:10.246Z,97462.15
2023-04-04T08:25:40.687Z,97459.14
2023-04-04T08:28:15.540Z,97459.42
2023-04-04T08:30:45.121Z,97461.35
2023-04-04T08:33:15.345Z,97459.88
2023-04-04T08:35:49.418Z,97458.98
2023-04-04T08:42:08.235Z,97462.58
2023-04-04T08:44:53.924Z,97461.34
2023-04-04T08:47:27.148Z,97461.67
2023-04-04T08:50:02.153Z,97467.42
2023-04-04T08:52:35.159Z,97461.52
2023-04-04T08:55:06.313Z,97465.85
2023-04-04T08:57:36.496Z,97466.29
2023-04-04T09:00:08.634Z,97460.71
2023-04-04T09:02:54.856Z,97459.85
2023-04-04T09:05:26.447Z,97457.23
2023-04-04T09:07:58.013Z,97458.02
2023-04-04T09:10:29.825Z,97461.67
2023-04-04T09:13:14.742Z,97456.31
2023-04-04T09:15:52.236Z,97455.73
2023-04-04T09:18:22.532Z,97455.36
2023-04-04T09:20:52.566Z,97456.73
2023-04-04T09:23:24.099Z,97460.35
2023-04-04T09:28:29.429Z,97455.12
2023-04-04T09:31:06.178Z,97457.87
2023-04-04T09:33:36.707Z,97459.80
2023-04-04T09:36:11.970Z,97457.70
2023-04-04T09:38:46.675Z,97461.89
2023-04-04T09:41:17.269Z,97459.73
2023-04-04T09:43:47.217Z,97463.45
2023-04-04T09:46:22.019Z,97462.96
2023-04-04T09:48:51.906Z,97464.58
2023-04-04T09:51:22.017Z,97462.41
2023-04-04T09:53:53.333Z,97464.20
2023-04-04T09:56:23.440Z,97467.43
2023-04-04T09:59:03.051Z,97468.02
2023-04-04T10:01:35.426Z,97465.20
2023-04-04T10:04:06.858Z,97466.17
2023-04-04T10:06:39.052Z,97465.73
2023-04-04T10:09:09.703Z,97467.62
2023-04-04T10:11:40.078Z,97464.60
2023-04-04T10:14:10.601Z,97465.36
2023-04-04T10:16:46.419Z,97462.95
2023-04-04T10:19:19.976Z,97463.20
2023-04-04T10:21:50.522Z,97465.36
2023-04-04T10:24:19.893Z,97468.73
2023-04-04T10:26:51.887Z,97470.36
2023-04-04T10:29:22.917Z,97469.98
2023-04-04T10:32:03.018Z,97466.85
2023-04-04T10:35:05.934Z,97467.71
2023-04-04T10:37:44.932Z,97462.02
2023-04-04T10:40:22.577Z,97461.20
2023-04-04T10:42:53.333Z,97461.96
2023-04-04T10:45:26.105Z,97463.58
2023-04-04T10:47:57.599Z,97461.79
2023-04-04T10:50:28.769Z,97466.74
2023-04-04T10:53:08.307Z,97462.66
2023-04-04T10:55:41.105Z,97463.25
2023-04-04T10:58:15.429Z,97466.37
2023-04-04T11:00:55.647Z,97465.66
2023-04-04T11:03:25.982Z,97463.92
2023-04-04T11:06:02.480Z,97461.52
2023-04-04T11:08:38.655Z,97457.55
2023-04-04T11:11:21.756Z,97460.16
2023-04-04T11:14:02.444Z,97460.68
2023-04-04T11:16:47.774Z,97460.61
2023-04-04T11:19:17.860Z,97453.32
2023-04-04T11:21:47.923Z,97451.67
2023-04-04T11:24:17.479Z,97458.12
2023-04-04T11:26:48.161Z,97458.17
2023-04-04T11:29:27.730Z,97460.82
2023-04-04T11:32:05.339Z,97460.17
2023-04-04T11:34:38.312Z,97458.90
2023-04-04T11:37:20.268Z,97456.75
2023-04-04T11:39:57.765Z,97452.56
2023-04-04T11:42:39.203Z,97450.68
2023-04-04T11:45:12.569Z,97449.31
2023-04-04T11:47:53.376Z,97442.73
2023-04-04T11:50:23.708Z,97442.76
2023-04-04T11:52:55.088Z,97443.77
2023-04-04T11:55:27.183Z,97440.64
2023-04-04T11:58:00.290Z,97441.00
2023-04-04T12:00:33.595Z,97435.06
2023-04-04T12:03:12.964Z,97440.11
2023-04-04T12:05:45.311Z,97440.00
2023-04-04T12:08:16.319Z,97436.91
2023-04-04T12:10:47.110Z,97436.08
2023-04-04T12:13:16.939Z,97440.37
2023-04-04T12:15:49.703Z,97439.06
2023-04-04T12:18:23.391Z,97438.90
2023-04-04T12:20:53.497Z,97432.70
2023-04-04T12:23:24.134Z,97433.64
2023-04-04T12:25:57.345Z,97434.54
2023-04-04T12:28:28.491Z,97434.77
2023-04-04T12:31:07.215Z,97435.64
2023-04-04T12:33:37.358Z,97438.96
2023-04-04T12:36:07.637Z,97435.67
2023-04-04T12:39:08.727Z,97432.70
2023-04-04T12:41:52.720Z,97432.98
2023-04-04T12:44:34.586Z,97434.98
2023-04-04T12:47:07.672Z,97437.42
2023-04-04T12:49:44.742Z,97438.47
2023-04-04T12:52:27.822Z,97438.83
2023-04-04T12:55:14.194Z,97442.84
2023-04-04T12:57:45.541Z,97437.73
2023-04-04T13:00:17.063Z,97438.64
2023-04-04T13:05:59.871Z,97445.40
2023-04-04T13:08:29.397Z,97447.79
2023-04-04T13:11:09.910Z,97452.43
2023-04-04T13:16:40.910Z,97453.81
2023-04-04T13:19:10.231Z,97451.44
2023-04-04T13:21:41.304Z,97451.33
2023-04-04T13:24:11.875Z,97446.91
2023-04-04T13:26:44.882Z,97450.58
2023-04-04T13:29:20.267Z,97453.48
2023-04-04T13:31:50.016Z,97452.52
2023-04-04T13:34:24.439Z,97451.98
2023-04-04T13:37:02.620Z,97454.17
2023-04-04T13:39:32.363Z,97458.68
2023-04-04T13:42:02.497Z,97463.26
2023-04-04T13:44:33.124Z,97461.87
2023-04-04T13:47:03.896Z,97461.44
2023-04-04T13:49:34.560Z,97460.14
2023-04-04T13:52:06.574Z,97464.88
2023-04-04T13:54:38.100Z,97466.73
2023-04-04T13:57:09.346Z,97471.12
2023-04-04T13:59:39.209Z,97474.36
2023-04-04T14:02:11.245Z,97476.32
2023-04-04T14:04:41.319Z,97476.85
2023-04-04T14:07:14.560Z,97481.31
2023-04-04T14:09:44.384Z,97478.56
2023-04-04T14:14:43.659Z,97488.40
2023-04-04T14:17:14.274Z,97486.73
2023-04-04T14:19:45.046Z,97491.78
2023-04-04T14:22:15.118Z,97494.75
2023-04-04T14:24:44.476Z,97495.96
2023-04-04T14:27:14.862Z,97499.73
2023-04-04T14:29:45.061Z,97499.55
2023-04-04T14:32:15.125Z,97499.77
2023-04-04T14:34:44.770Z,97502.00
2023-04-04T14:37:14.187Z,97499.60
2023-04-04T14:39:46.103Z,97501.11
2023-04-04T14:42:16.329Z,97503.88
2023-04-04T14:44:46.533Z,97503.27
2023-04-04T14:47:16.779Z,97504.52
2023-04-04T14:49:46.519Z,97505.64
2023-04-04T14:52:16.080Z,97507.14
2023-04-04T14:54:46.399Z,97506.33
2023-04-04T14:57:16.852Z,97510.52
2023-04-04T15:03:28.029Z,97513.29
2023-04-04T15:06:00.885Z,97518.21
2023-04-04T15:08:32.142Z,97521.16
2023-04-04T15:11:03.007Z,97516.21
2023-04-04T15:13:32.343Z,97520.34
2023-04-04T15:16:04.574Z,97523.27
2023-04-04T15:18:35.533Z,97519.44
2023-04-04T15:21:07.962Z,97524.73
2023-04-04T15:23:41.238Z,97526.23
2023-04-04T15:26:13.635Z,97527.27
2023-04-04T15:28:46.532Z,97528.05
2023-04-04T15:31:17.882Z,97530.46
2023-04-04T15:33:50.681Z,97533.41
2023-04-04T15:36:25.538Z,97534.53
2023-04-04T15:38:56.735Z,97532.17
2023-04-04T15:41:32.429Z,97535.33
2023-04-04T15:44:03.910Z,97533.42
2023-04-04T15:46:37.249Z,97538.10
2023-04-04T15:49:07.033Z,97538.83
2023-04-04T15:51:39.669Z,97535.66
2023-04-04T15:54:11.293Z,97536.17
2023-04-04T15:56:42.114Z,97539.39
2023-04-04T15:59:12.045Z,97540.11
2023-04-04T16:01:42.157Z,97542.95
2023-04-04T16:04:13.605Z,97538.46
2023-04-04T16:06:43.464Z,97539.17
2023-04-04T16:09:14.038Z,97542.70
2023-04-04T16:11:44.819Z,97535.20
2023-04-04T16:14:14.697Z,97539.98
2023-04-04T16:16:45.169Z,97536.86
2023-04-04T16:19:17.712Z,97535.91
2023-04-04T16:21:49.560Z,97538.20
2023-04-04T16:24:21.255Z,97539.12
2023-04-04T16:26:58.655Z,97537.88
2023-04-04T16:29:31.502Z,97543.17
2023-04-04T16:32:02.736Z,97538.69
2023-04-04T16:34:49.451Z,97543.41
2023-04-04T16:37:25.592Z,97545.95
2023-04-04T16:43:54.018Z,97545.54
2023-04-04T16:46:26.996Z,97546.55
2023-04-04T16:48:59.961Z,97544.66
2023-04-04T16:51:29.124Z,97546.83
2023-04-04T16:54:00.217Z,97545.25
2023-04-04T17:00:26.608Z,97544.08
2023-04-04T17:02:56.441Z,97545.25
2023-04-04T17:05:29.220Z,97546.48
2023-04-04T17:08:00.214Z,97546.03
2023-04-04T17:10:29.851Z,97543.89
2023-04-04T17:12:59.419Z,97545.11
2023-04-04T17:15:38.647Z,97547.27
2023-04-04T17:18:25.380Z,97540.05
2023-04-04T17:20:55.544Z,97549.80
2023-04-04T17:23:25.681Z,97548.99
2023-04-04T17:26:06.751Z,97552.98
2023-04-04T17:28:41.455Z,97552.48
2023-04-04T17:31:11.582Z,97558.84
2023-04-04T17:33:44.926Z,97562.55
2023-04-04T17:36:15.411Z,97563.32
2023-04-04T17:38:44.520Z,97566.28
2023-04-04T17:41:13.804Z,97565.98
2023-04-04T17:43:46.675Z,97566.93
2023-04-04T17:46:18.646Z,97568.08
2023-04-04T17:48:50.868Z,97573.89
2023-04-04T17:51:22.393Z,97570.13
2023-04-04T17:53:51.713Z,97572.39
2023-04-04T17:57:07.043Z,97579.38
2023-04-04T17:59:37.476Z,97578.35
2023-04-04T18:02:07.869Z,97580.93
2023-04-04T18:04:41.636Z,97582.23
2023-04-04T18:07:11.743Z,97581.86
2023-04-04T18:09:44.660Z,97580.98
2023-04-04T18:12:16.509Z,97587.96
2023-04-04T18:14:46.458Z,97587.77
2023-04-04T18:17:18.835Z,97587.86
2023-04-04T18:19:55.129Z,97585.50
2023-04-04T18:22:28.006Z,97590.60
2023-04-04T18:24:57.814Z,97590.05
2023-04-04T18:27:31.614Z,97593.42
2023-04-04T18:30:04.640Z,97588.67
2023-04-04T18:32:41.031Z,97594.02
2023-04-04T18:35:25.603Z,97595.39
2023-04-04T18:37:55.369Z,97594.74
2023-04-04T18:40:29.509Z,97592.96
2023-04-04T18:43:01.904Z,97595.86
2023-04-04T18:45:40.325Z,97595.05
2023-04-04T18:48:14.953Z,97595.14
2023-04-04T18:50:47.432Z,97593.89
2023-04-04T18:53:17.191Z,97593.77
2023-04-04T18:55:49.706Z,97596.07
2023-04-04T18:58:21.424Z,97596.78
2023-04-04T19:00:54.808Z,97599.30
2023-04-04T19:03:25.555Z,97599.77
2023-04-04T19:05:56.459Z,97598.65
2023-04-04T19:08:27.994Z,97598.08
2023-04-04T19:10:57.145Z,97600.28
2023-04-04T19:13:28.059Z,97601.78
2023-04-04T19:15:57.194Z,97600.81
2023-04-04T19:18:28.657Z,97602.15
2023-04-04T19:20:59.087Z,97603.96
2023-04-04T19:23:31.267Z,97599.04
2023-04-04T19:26:04.653Z,97601.77
2023-04-04T19:28:43.936Z,97602.48
2023-04-04T19:31:32.953Z,97603.55
2023-04-04T19:34:25.552Z,97604.97
2023-04-04T19:36:58.332Z,97605.90
2023-04-04T19:39:36.732Z,97605.10
2023-04-04T19:42:11.854Z,97606.73
2023-04-04T19:44:42.198Z,97608.00
2023-04-04T19:47:14.786Z,97607.51
2023-04-04T19:50:36.356Z,97608.82
2023-04-04T19:55:09.962Z,97609.23
2023-04-04T19:58:34.406Z,97608.92
2023-04-04T20:01:05.481Z,97609.98
2023-04-04T20:03:38.648Z,97616.35
2023-04-04T20:06:23.824Z,97612.95
2023-04-04T20:08:54.304Z,97616.05
2023-04-04T20:11:36.253Z,97614.10
2023-04-04T20:14:10.372Z,97615.47
2023-04-04T20:17:07.352Z,97613.77
2023-04-04T20:19:37.920Z,97615.66
2023-04-04T20:22:28.570Z,97613.83
2023-04-04T20:25:41.913Z,97616.86
2023-04-04T20:28:30.019Z,97614.96
2023-04-04T20:31:12.017Z,97614.08
2023-04-04T20:33:42.721Z,97613.64
2023-04-04T20:36:32.189Z,97608.60
2023-04-04T20:39:02.671Z,97609.33
2023-04-04T20:41:33.999Z,97612.61
2023-04-04T20:44:04.742Z,97612.25
2023-04-04T20:46:36.896Z,97614.03
2023-04-04T20:49:09.021Z,97617.23
2023-04-04T20:51:38.384Z,97615.86
2023-04-04T20:54:20.116Z,97614.41
2023-04-04T20:56:55.575Z,97615.57
2023-04-04T20:59:36.050Z,97616.15
2023-04-04T21:02:17.230Z,97613.95
2023-04-04T21:04:50.054Z,97609.05
2023-04-04T21:07:36.513Z,97608.52
2023-04-04T21:10:20.964Z,97609.86
2023-04-04T21:12:52.417Z,97608.50
2023-04-04T21:15:29.820Z,97608.14
2023-04-04T21:18:03.772Z,97612.31
2023-04-04T21:20:48.093Z,97610.39
2023-04-04T21:23:28.934Z,97610.09
2023-04-04T21:26:05.961Z,97610.38
2023-04-04T21:28:38.275Z,97612.79
2023-04-04T21:31:14.128Z,97613.36
2023-04-04T21:33:47.439Z,97611.42
2023-04-04T21:36:21.553Z,97611.95
2023-04-04T21:39:00.745Z,97611.52
2023-04-04T21:41:35.090Z,97614.50
2023-04-04T21:44:07.734Z,97614.70
2023-04-04T21:46:39.579Z,97615.23
2023-04-04T21:49:11.264Z,97614.10
2023-04-04T21:51:44.471Z,97613.10
2023-04-04T21:54:15.432Z,97610.52
2023-04-04T21:56:46.975Z,97616.73
2023-04-04T21:59:16.537Z,97617.36
2023-04-04T22:01:46.560Z,97614.88
2023-04-04T22:04:17.668Z,97615.70
2023-04-04T22:06:47.271Z,97618.00
2023-04-04T22:09:17.081Z,97615.48
2023-04-04T22:11:47.614Z,97616.38
2023-04-04T22:14:18.260Z,97612.61
2023-04-04T22:16:47.689Z,97610.94
2023-04-04T22:19:18.258Z,97612.45
2023-04-04T22:21:48.756Z,97617.70
2023-04-04T22:24:23.395Z,97619.98
2023-04-04T22:26:52.770Z,97621.40
2023-04-04T22:29:22.989Z,97619.59
2023-04-04T22:31:53.537Z,97619.13
2023-04-04T22:34:23.872Z,97623.09
2023-04-04T22:36:55.288Z,97623.06
2023-04-04T22:39:25.994Z,97623.69
2023-04-04T22:41:55.717Z,97628.34
2023-04-04T22:44:25.661Z,97629.23
2023-04-04T22:46:58.919Z,97626.29
2023-04-04T22:49:33.303Z,97626.20
2023-04-04T22:52:07.483Z,97630.95
2023-04-04T22:54:37.839Z,97634.11
2023-04-04T22:57:08.119Z,97633.42
2023-04-04T22:59:39.193Z,97635.84
2023-04-04T23:02:08.995Z,97637.23
2023-04-04T23:04:39.491Z,97636.34
2023-04-04T23:07:10.223Z,97634.89
2023-04-04T23:09:39.544Z,97641.97
2023-04-04T23:12:09.914Z,97634.41
2023-04-04T23:14:40.134Z,97634.13
2023-04-04T23:17:09.663Z,97636.08
2023-04-04T23:19:39.387Z,97635.52
2023-04-04T23:22:09.213Z,97635.67
2023-04-04T23:24:39.123Z,97635.86
2023-04-04T23:27:09.441Z,97631.52
2023-04-04T23:29:39.722Z,97632.67
2023-04-04T23:32:10.095Z,97629.59
2023-04-04T23:34:40.209Z,97631.19
2023-04-04T23:37:10.742Z,97629.36
2023-04-04T23:39:41.746Z,97628.72
2023-04-04T23:42:12.060Z,97625.14
2023-04-04T23:44:43.857Z,97624.29
2023-04-04T23:47:17.121Z,97626.90
2023-04-04T23:49:47.074Z,97625.42
2023-04-04T23:52:17.302Z,97626.69
2023-04-04T23:54:46.903Z,97623.76
2023-04-04T23:57:17.633Z,97621.06
2023-04-04T23:59:47.708Z,97622.64
